This is the latest recevied weather packets stored in our database for station/object DL5DI-H. If no packets are shown the sender has not sent any weather packets the latest 10 day(s).
| Time | Temp. | Humidity | Pressure | Rain* | Wind** | Luminosity | Snow |
|---|---|---|---|---|---|---|---|
| 1777126801 | 21.67° C | 33% | 1019.3 hPa | 0 mm | - | - | - |
| 1777126200 | 21.11° C | 36% | 1019.3 hPa | 0 mm | - | - | - |
| 1777125601 | 20.56° C | 34% | 1019.3 hPa | 0 mm | - | - | - |
| 1777125004 | 20.56° C | 35% | 1019.3 hPa | 0 mm | - | - | - |
| 1777124400 | 19.44° C | 45% | 1019.6 hPa | 0 mm | - | - | - |
| 1777123801 | 19.44° C | 45% | 1019.6 hPa | 0 mm | - | - | - |
| 1777123200 | 19.44° C | 45% | 1019.6 hPa | 0 mm | - | - | - |
| 1777122604 | 19.44° C | 45% | 1019.6 hPa | 0 mm | - | - | - |
| 1777122001 | 19.44° C | 45% | 1019.6 hPa | 0 mm | - | - | - |
| 1777121404 | 19.44° C | 44% | 1019.6 hPa | 0 mm | - | - | - |
| 1777120800 | 18.89° C | 46% | 1019.8 hPa | 0 mm | - | - | - |
| 1777120204 | 18.89° C | 44% | 1019.9 hPa | 0 mm | - | - | - |
| 1777119601 | 18.89° C | 46% | 1019.8 hPa | 0 mm | - | - | - |
| 1777118401 | 18.33° C | 46% | 1020 hPa | 0 mm | - | - | - |
| 1777117805 | 17.78° C | 47% | 1020.1 hPa | 0 mm | - | - | - |
| 1777117200 | 16.11° C | 44% | 1020.3 hPa | 0 mm | - | - | - |
| 1777116600 | 16.11° C | 44% | 1020.3 hPa | 0 mm | - | - | - |
| 1777116001 | 16.11° C | 44% | 1020.3 hPa | 0 mm | - | - | - |
| 1777115405 | 16.11° C | 44% | 1020.3 hPa | 0 mm | - | - | - |
| 1777114805 | 16.11° C | 44% | 1020.3 hPa | 0 mm | - | - | - |
| 1777114201 | 16.11° C | 44% | 1020.3 hPa | 0 mm | - | - | - |
| 1777113604 | 15.56° C | 46% | 1020.4 hPa | 0 mm | - | - | - |
| 1777113000 | 15° C | 47% | 1020.4 hPa | 0 mm | - | - | - |
| 1777112404 | 14.44° C | 58% | 1020.4 hPa | 0 mm | - | - | - |
| 1777111804 | 13.89° C | 60% | 1020.6 hPa | 0 mm | - | - | - |
* Rain latest hour (hover to see other rain measurements)
** Current wind speed in m/s (hover to see current wind gust speed)